Time;durP1;ratioP1;P1;durP2;ratioP2;P2;SDS_P1;SDS_P2;PMS_P1;PMS_P2;Temp;Humidity;BMP_temperature;BMP_pressure;BME280_temperature;BME280_humidity;BME280_pressure;Samples;Min_cycle;Max_cycle;Signal;HPM_P1;HPM_P2
2022/06/20 00:00:32;;;;;;;;;;;;;;;17.89;63.64;97489.34;1779663;80;20391;-83
2022/06/20 00:03:00;;;;;;;;;;;;;;;17.83;65.02;97491.48;1779219;80;20184;-83
2022/06/20 00:05:31;;;;;;;;;;;;;;;17.85;63.33;97491.14;1779307;80;21918;-85
2022/06/20 00:07:57;;;;;;;;;;;;;;;17.88;63.29;97482.27;1759088;79;20188;-86
2022/06/20 00:10:24;;;;;;;;;;;;;;;17.91;64.01;97484.31;1780207;79;20218;-86
2022/06/20 00:12:50;;;;;;;;;;;;;;;17.88;64.34;97477.58;1777569;79;20179;-85
2022/06/20 00:15:28;;;;;;;;;;;;;;;17.87;62.99;97480.66;1767253;80;20188;-85
2022/06/20 00:17:54;;;;;;;;;;;;;;;17.89;62.85;97473.70;1779426;79;21844;-86
2022/06/20 00:20:20;;;;;;;;;;;;;;;17.91;63.91;97480.20;1783492;79;20436;-86
2022/06/20 00:22:46;;;;;;;;;;;;;;;17.93;62.69;97480.66;1779657;80;20253;-85
2022/06/20 00:25:11;;;;;;;;;;;;;;;17.89;63.19;97468.21;1779673;80;20384;-86
2022/06/20 00:27:37;;;;;;;;;;;;;;;17.87;62.44;97466.39;1779268;80;20203;-85
2022/06/20 00:30:04;;;;;;;;;;;;;;;17.86;61.70;97473.02;1779801;80;21153;-85
2022/06/20 00:32:29;;;;;;;;;;;;;;;17.82;62.87;97466.59;1779423;79;20486;-85
2022/06/20 00:34:55;;;;;;;;;;;;;;;17.79;64.11;97467.29;1779959;80;20254;-86
2022/06/20 00:37:21;;;;;;;;;;;;;;;17.73;65.04;97458.47;1778969;79;20515;-86
2022/06/20 00:39:47;;;;;;;;;;;;;;;17.70;64.04;97474.23;1768405;80;20216;-85
2022/06/20 00:42:13;;;;;;;;;;;;;;;17.67;65.16;97469.95;1763214;79;21158;-85
2022/06/20 00:44:42;;;;;;;;;;;;;;;17.57;65.87;97473.92;1780438;80;21084;-86
2022/06/20 00:47:13;;;;;;;;;;;;;;;17.52;66.20;97464.58;1778235;80;20192;-85
2022/06/20 00:49:58;;;;;;;;;;;;;;;17.41;66.60;97457.90;1780549;80;20248;-86
2022/06/20 00:52:38;;;;;;;;;;;;;;;17.37;64.86;97460.52;1748369;80;20199;-85
2022/06/20 00:55:07;;;;;;;;;;;;;;;17.28;65.96;97463.92;1758386;80;21047;-85
2022/06/20 00:57:55;;;;;;;;;;;;;;;17.28;65.05;97459.81;1751748;79;20262;-86
2022/06/20 01:00:26;;;;;;;;;;;;;;;17.28;65.62;97459.02;1779717;80;20207;-85
2022/06/20 01:02:55;;;;;;;;;;;;;;;17.32;65.82;97455.81;1779074;79;20203;-85
2022/06/20 01:05:34;;;;;;;;;;;;;;;17.38;64.79;97455.84;1779905;80;20652;-83
2022/06/20 01:08:08;;;;;;;;;;;;;;;17.42;66.45;97444.44;1778574;79;20853;-82
2022/06/20 01:10:40;;;;;;;;;;;;;;;17.47;64.76;97452.45;1779815;80;20279;-82
2022/06/20 01:13:09;;;;;;;;;;;;;;;17.49;65.78;97445.48;1778949;79;20577;-82
2022/06/20 01:15:37;;;;;;;;;;;;;;;17.53;64.63;97455.78;1745994;80;20292;-83
2022/06/20 01:18:03;;;;;;;;;;;;;;;17.57;63.63;97447.91;1747564;80;20261;-82
2022/06/20 01:20:31;;;;;;;;;;;;;;;17.57;63.78;97462.97;1779646;80;21026;-86
2022/06/20 01:23:17;;;;;;;;;;;;;;;17.60;63.85;97459.55;1779203;80;20270;-85
2022/06/20 01:25:53;;;;;;;;;;;;;;;17.60;64.95;97469.70;1779424;80;20200;-85
2022/06/20 01:28:25;;;;;;;;;;;;;;;17.61;63.71;97469.96;1779002;79;20141;-85
2022/06/20 01:30:51;;;;;;;;;;;;;;;17.63;63.69;97491.76;1779537;80;20434;-85
2022/06/20 01:33:18;;;;;;;;;;;;;;;17.61;63.33;97498.16;1763823;80;21910;-85
2022/06/20 01:38:28;;;;;;;;;;;;;;;17.49;63.60;97507.11;1779358;79;20164;-83
2022/06/20 01:43:37;;;;;;;;;;;;;;;17.52;64.59;97496.07;1779691;80;20683;-83
2022/06/20 01:46:09;;;;;;;;;;;;;;;17.51;64.22;97492.28;1745108;80;21235;-83
2022/06/20 01:48:33;;;;;;;;;;;;;;;17.51;64.39;97490.91;1757458;80;20486;-83
2022/06/20 01:50:59;;;;;;;;;;;;;;;17.49;65.42;97509.05;1779793;80;20308;-83
2022/06/20 01:53:31;;;;;;;;;;;;;;;17.41;64.35;97496.23;1748643;80;20219;-83
2022/06/20 01:55:56;;;;;;;;;;;;;;;17.35;64.07;97495.67;1776797;80;20271;-85
2022/06/20 01:58:30;;;;;;;;;;;;;;;17.26;65.58;97496.31;1779189;80;21053;-85
2022/06/20 02:00:57;;;;;;;;;;;;;;;17.07;68.88;97502.81;1779230;80;20278;-83
2022/06/20 02:03:23;;;;;;;;;;;;;;;16.98;67.10;97506.19;1760746;80;20169;-83
2022/06/20 02:05:50;;;;;;;;;;;;;;;16.91;65.98;97497.94;1767789;80;20186;-85
2022/06/20 02:08:17;;;;;;;;;;;;;;;16.87;68.14;97494.27;1779076;79;20136;-85
2022/06/20 02:10:50;;;;;;;;;;;;;;;16.83;66.28;97501.53;1779775;80;21116;-85
2022/06/20 02:13:16;;;;;;;;;;;;;;;16.80;66.95;97504.94;1776919;80;20235;-85
2022/06/20 02:15:42;;;;;;;;;;;;;;;16.69;70.92;97498.27;1742627;81;20208;-85
2022/06/20 02:18:08;;;;;;;;;;;;;;;16.61;71.54;97505.93;1755608;80;20671;-84
2022/06/20 02:20:45;;;;;;;;;;;;;;;16.47;71.14;97497.95;1779392;80;20183;-85
2022/06/20 02:23:07;;;;;;;;;;;;;;;16.36;71.67;97504.94;1779516;79;20758;-85
2022/06/20 02:25:33;;;;;;;;;;;;;;;16.23;72.01;97506.75;1779351;80;20222;-84
2022/06/20 02:28:01;;;;;;;;;;;;;;;16.12;69.94;97510.19;1778502;80;20261;-85
2022/06/20 02:30:28;;;;;;;;;;;;;;;16.03;71.72;97502.03;1780020;80;20519;-85
2022/06/20 02:33:00;;;;;;;;;;;;;;;15.93;71.48;97499.09;1770705;80;20491;-85
2022/06/20 02:35:26;;;;;;;;;;;;;;;15.79;75.54;97494.39;1760898;80;22328;-85
2022/06/20 02:37:51;;;;;;;;;;;;;;;15.69;74.70;97480.52;1754407;80;20508;-85
2022/06/20 02:40:19;;;;;;;;;;;;;;;15.64;71.10;97477.19;1779775;80;20281;-85
2022/06/20 02:42:59;;;;;;;;;;;;;;;15.58;76.48;97488.00;1779464;80;20196;-85
2022/06/20 02:45:25;;;;;;;;;;;;;;;15.52;75.86;97487.36;1771169;80;20234;-85
2022/06/20 02:59:50;;;;;;;;;;;;;;;15.40;74.96;97488.60;1827704;77;20201;-85
2022/06/20 03:02:17;;;;;;;;;;;;;;;15.38;72.27;97473.09;1835541;77;21155;-84
2022/06/20 03:04:44;;;;;;;;;;;;;;;15.38;72.11;97470.36;1856531;76;20415;-85
2022/06/20 03:07:12;;;;;;;;;;;;;;;15.36;77.43;97476.14;1841697;77;20466;-85
2022/06/20 03:09:39;;;;;;;;;;;;;;;15.35;78.84;97476.47;1850798;77;20158;-85
2022/06/20 03:12:05;;;;;;;;;;;;;;;15.33;79.46;97474.64;1820723;77;20430;-85
2022/06/20 03:14:37;;;;;;;;;;;;;;;15.32;78.16;97473.84;1844238;76;21125;-85
2022/06/20 03:17:04;;;;;;;;;;;;;;;15.34;74.04;97474.31;1826743;77;20478;-85
2022/06/20 03:19:32;;;;;;;;;;;;;;;15.29;77.19;97475.03;1840230;77;20187;-84
2022/06/20 03:21:57;;;;;;;;;;;;;;;15.30;79.90;97470.64;1850076;77;20195;-82
2022/06/20 03:24:28;;;;;;;;;;;;;;;15.34;79.67;97470.78;1856024;76;20198;-82
2022/06/20 03:26:54;;;;;;;;;;;;;;;15.37;79.66;97482.41;1849705;77;21115;-82
2022/06/20 03:29:20;;;;;;;;;;;;;;;15.43;79.12;97483.28;1844167;76;20159;-82
2022/06/20 03:31:46;;;;;;;;;;;;;;;15.51;77.67;97477.01;1854871;76;20201;-82
2022/06/20 03:34:12;;;;;;;;;;;;;;;15.59;77.35;97482.78;1839012;77;20707;-83
2022/06/20 03:36:38;;;;;;;;;;;;;;;15.69;77.22;97485.19;1856410;76;20691;-82
2022/06/20 03:39:04;;;;;;;;;;;;;;;15.78;77.29;97492.79;1843642;76;21116;-83
2022/06/20 03:41:30;;;;;;;;;;;;;;;15.90;75.96;97488.03;1859230;76;20143;-85
2022/06/20 03:44:07;;;;;;;;;;;;;;;15.97;74.06;97478.73;1853495;76;20178;-85
2022/06/20 03:46:46;;;;;;;;;;;;;;;16.06;74.47;97478.14;1850035;75;20215;-85
2022/06/20 03:49:18;;;;;;;;;;;;;;;16.23;73.83;97482.16;1856079;76;20245;-85
2022/06/20 03:51:59;;;;;;;;;;;;;;;16.38;72.74;97475.90;1828851;77;21095;-85
2022/06/20 03:54:32;;;;;;;;;;;;;;;16.48;73.50;97480.98;1850439;76;20790;-83
2022/06/20 03:57:06;;;;;;;;;;;;;;;16.39;77.35;97489.23;1851796;76;20233;-83
2022/06/20 03:59:38;;;;;;;;;;;;;;;16.45;76.58;97503.53;1859377;76;20132;-83
2022/06/20 04:02:19;;;;;;;;;;;;;;;16.51;74.91;97493.45;1859718;76;20127;-83
2022/06/20 04:05:06;;;;;;;;;;;;;;;16.68;73.39;97478.06;1848028;76;21033;-83
2022/06/20 04:07:44;;;;;;;;;;;;;;;16.81;73.42;97475.65;1848510;76;20391;-83
2022/06/20 04:13:19;;;;;;;;;;;;;;;17.01;74.64;97499.50;1836213;77;20709;-83
2022/06/20 04:15:51;;;;;;;;;;;;;;;17.15;73.73;97501.37;1839873;77;20242;-83
2022/06/20 04:18:29;;;;;;;;;;;;;;;17.29;72.60;97494.83;1858383;76;21721;-85
2022/06/20 04:21:04;;;;;;;;;;;;;;;17.45;71.82;97492.50;1857019;76;20229;-85
2022/06/20 04:23:43;;;;;;;;;;;;;;;17.57;71.55;97491.73;1841824;77;20199;-86
2022/06/20 04:26:12;;;;;;;;;;;;;;;17.60;73.87;97493.78;1837102;76;20635;-83
2022/06/20 04:28:57;;;;;;;;;;;;;;;17.72;74.73;97493.07;1858517;76;20171;-83
2022/06/20 04:31:32;;;;;;;;;;;;;;;17.91;72.76;97496.07;1859467;76;20998;-83
2022/06/20 04:34:08;;;;;;;;;;;;;;;18.12;71.50;97493.83;1859549;76;20139;-83
2022/06/20 04:37:01;;;;;;;;;;;;;;;18.26;71.19;97482.73;1858410;75;20210;-83
2022/06/20 04:39:42;;;;;;;;;;;;;;;18.51;69.87;97480.79;1852381;76;20411;-83
2022/06/20 04:42:18;;;;;;;;;;;;;;;18.64;72.32;97482.16;1842621;77;20442;-83
2022/06/20 04:44:49;;;;;;;;;;;;;;;18.76;71.57;97472.56;1811769;78;21023;-83
2022/06/20 04:47:36;;;;;;;;;;;;;;;18.94;70.82;97475.26;1833759;77;20289;-83
2022/06/20 04:50:02;;;;;;;;;;;;;;;19.12;70.51;97477.95;1839731;77;20319;-83
2022/06/20 04:52:27;;;;;;;;;;;;;;;19.34;69.53;97489.55;1849205;77;20750;-83
2022/06/20 04:54:54;;;;;;;;;;;;;;;19.42;69.02;97485.86;1834849;77;20476;-83
2022/06/20 04:57:20;;;;;;;;;;;;;;;19.63;69.20;97487.83;1834316;77;21671;-83
2022/06/20 04:59:45;;;;;;;;;;;;;;;19.84;68.01;97484.08;1850624;76;20185;-83
2022/06/20 05:02:14;;;;;;;;;;;;;;;20.03;67.56;97482.80;1859355;76;20209;-83
2022/06/20 05:04:41;;;;;;;;;;;;;;;20.17;67.77;97488.66;1850636;77;20182;-86
2022/06/20 05:07:20;;;;;;;;;;;;;;;20.43;67.08;97501.08;1841554;76;20214;-86
2022/06/20 05:09:52;;;;;;;;;;;;;;;20.61;66.42;97503.70;1843494;76;21259;-86
2022/06/20 05:12:37;;;;;;;;;;;;;;;20.77;64.01;97500.92;1829555;76;20137;-85
2022/06/20 05:15:09;;;;;;;;;;;;;;;20.98;65.32;97506.89;1851912;76;20238;-86
2022/06/20 05:17:35;;;;;;;;;;;;;;;21.13;65.56;97514.89;1826419;77;20729;-86
2022/06/20 05:20:04;;;;;;;;;;;;;;;21.28;64.94;97514.66;1853421;76;20320;-86
2022/06/20 05:22:33;;;;;;;;;;;;;;;21.40;63.92;97512.53;1834921;77;21118;-86
2022/06/20 05:25:00;;;;;;;;;;;;;;;21.52;63.34;97510.20;1840075;77;20235;-85
2022/06/20 05:27:29;;;;;;;;;;;;;;;21.58;63.31;97510.13;1854713;76;20190;-86
2022/06/20 05:29:56;;;;;;;;;;;;;;;21.67;62.31;97512.08;1849640;77;20549;-86
2022/06/20 05:32:25;;;;;;;;;;;;;;;21.86;61.94;97504.94;1849023;76;20218;-86
2022/06/20 05:34:55;;;;;;;;;;;;;;;21.96;61.25;97501.02;1826994;77;21809;-85
2022/06/20 05:37:47;;;;;;;;;;;;;;;22.11;61.30;97502.08;1840396;77;20151;-86
2022/06/20 05:40:24;;;;;;;;;;;;;;;22.27;59.66;97501.16;1830129;77;20222;-87
2022/06/20 05:42:50;;;;;;;;;;;;;;;22.44;60.25;97504.21;1846759;76;20167;-86
2022/06/20 05:45:18;;;;;;;;;;;;;;;22.67;59.32;97505.56;1842725;77;20178;-86
2022/06/20 05:47:47;;;;;;;;;;;;;;;22.73;58.71;97491.66;1840954;76;21112;-86
2022/06/20 05:50:37;;;;;;;;;;;;;;;22.84;58.86;97497.91;1854138;76;20221;-86
2022/06/20 05:53:05;;;;;;;;;;;;;;;23.02;58.22;97507.28;1846724;77;20187;-87
2022/06/20 05:55:34;;;;;;;;;;;;;;;23.19;57.32;97510.07;1842856;77;20703;-86
2022/06/20 05:58:00;;;;;;;;;;;;;;;23.27;56.24;97507.61;1849866;76;20532;-87
2022/06/20 06:00:28;;;;;;;;;;;;;;;23.31;55.58;97491.86;1854819;76;21138;-84
2022/06/20 06:02:59;;;;;;;;;;;;;;;23.42;55.31;97492.80;1850460;77;20182;-84
2022/06/20 06:05:36;;;;;;;;;;;;;;;23.49;55.73;97485.16;1842143;77;20143;-83
2022/06/20 06:08:11;;;;;;;;;;;;;;;23.73;56.22;97486.64;1815696;76;20167;-83
2022/06/20 06:10:43;;;;;;;;;;;;;;;24.03;56.03;97481.03;1857070;77;20525;-84
2022/06/20 06:13:36;;;;;;;;;;;;;;;24.33;56.24;97484.48;1849876;76;21059;-84
2022/06/20 06:19:34;;;;;;;;;;;;;;;24.88;55.27;97477.56;1853336;76;20171;-86
2022/06/20 06:22:03;;;;;;;;;;;;;;;25.05;52.24;97465.61;1841268;75;20200;-86
2022/06/20 06:24:28;;;;;;;;;;;;;;;25.11;52.68;97461.27;1849892;76;20198;-86
2022/06/20 06:26:58;;;;;;;;;;;;;;;25.28;51.63;97463.33;1853592;75;21142;-86
2022/06/20 06:29:40;;;;;;;;;;;;;;;25.52;51.02;97468.17;1848814;75;20321;-86
2022/06/20 06:32:12;;;;;;;;;;;;;;;25.71;50.62;97462.90;1851849;76;20265;-86
2022/06/20 06:34:57;;;;;;;;;;;;;;;25.85;45.59;97460.77;1854450;76;20143;-86
2022/06/20 06:37:26;;;;;;;;;;;;;;;26.08;48.69;97455.64;1839434;76;20203;-86
2022/06/20 06:40:01;;;;;;;;;;;;;;;26.35;50.08;97455.25;1850304;75;20894;-86
2022/06/20 06:42:27;;;;;;;;;;;;;;;26.47;47.82;97459.62;1849862;76;20627;-86
2022/06/20 06:44:54;;;;;;;;;;;;;;;26.56;47.21;97453.86;1850871;76;20190;-86
2022/06/20 06:47:23;;;;;;;;;;;;;;;26.68;47.62;97450.69;1847364;76;20222;-86
2022/06/20 06:49:50;;;;;;;;;;;;;;;26.85;46.76;97440.72;1847589;76;20202;-84
2022/06/20 06:52:32;;;;;;;;;;;;;;;26.91;46.18;97429.38;1852908;76;21085;-84
2022/06/20 06:55:38;;;;;;;;;;;;;;;27.07;45.95;97426.17;1836734;76;20162;-84
2022/06/20 06:58:07;;;;;;;;;;;;;;;27.16;44.84;97417.41;1851736;76;20151;-84
2022/06/20 07:00:45;;;;;;;;;;;;;;;27.23;45.94;97419.56;1852142;76;20345;-84
2022/06/20 07:03:20;;;;;;;;;;;;;;;27.33;43.12;97417.13;1844518;76;20202;-84
2022/06/20 07:05:50;;;;;;;;;;;;;;;27.51;45.24;97418.61;1831969;76;21107;-84
2022/06/20 07:08:23;;;;;;;;;;;;;;;27.76;45.21;97410.15;1855169;75;20155;-84
2022/06/20 07:10:57;;;;;;;;;;;;;;;27.92;44.34;97413.82;1849508;76;20422;-84
2022/06/20 07:13:39;;;;;;;;;;;;;;;27.93;42.56;97409.04;1848044;75;20247;-87
2022/06/20 07:16:08;;;;;;;;;;;;;;;27.82;40.75;97408.52;1856395;76;20216;-84
2022/06/20 07:18:37;;;;;;;;;;;;;;;27.72;41.10;97407.21;1856457;76;20908;-87
2022/06/20 07:21:04;;;;;;;;;;;;;;;27.82;41.37;97401.56;1852222;75;20140;-87
2022/06/20 07:23:30;;;;;;;;;;;;;;;28.07;42.19;97401.98;1844555;76;20410;-88
2022/06/20 07:25:57;;;;;;;;;;;;;;;28.31;41.10;97396.04;1847032;76;20260;-87
2022/06/20 07:28:29;;;;;;;;;;;;;;;28.27;41.32;97397.42;1841769;75;20131;-88
2022/06/20 07:30:58;;;;;;;;;;;;;;;28.36;42.33;97399.76;1778256;78;21211;-84
2022/06/20 07:33:33;;;;;;;;;;;;;;;28.64;41.93;97402.89;1794851;79;20460;-84
2022/06/20 07:35:59;;;;;;;;;;;;;;;28.79;41.07;97394.53;1783636;77;20192;-84
2022/06/20 07:38:30;;;;;;;;;;;;;;;28.96;41.18;97391.39;1789037;78;20203;-85
2022/06/20 07:41:13;;;;;;;;;;;;;;;29.09;39.75;97393.05;1799127;77;20419;-84
2022/06/20 07:43:42;;;;;;;;;;;;;;;29.10;40.84;97391.22;1801085;77;21206;-84
2022/06/20 07:46:11;;;;;;;;;;;;;;;29.44;41.07;97391.78;1784660;79;20244;-84
2022/06/20 07:48:39;;;;;;;;;;;;;;;29.62;38.09;97390.95;1785579;78;20250;-84
2022/06/20 07:51:16;;;;;;;;;;;;;;;29.78;38.09;97386.14;1781649;78;20159;-84
2022/06/20 07:53:49;;;;;;;;;;;;;;;29.89;36.97;97386.75;1802671;78;20268;-84
2022/06/20 07:56:18;;;;;;;;;;;;;;;30.01;37.72;97383.38;1772908;80;21835;-85
2022/06/20 07:58:52;;;;;;;;;;;;;;;30.49;41.21;97374.39;1812085;77;20437;-85
2022/06/20 08:01:19;;;;;;;;;;;;;;;31.12;39.73;97370.20;1811384;77;20635;-84
2022/06/20 08:03:48;;;;;;;;;;;;;;;31.70;37.19;97368.54;1805993;77;20522;-85
2022/06/20 08:06:30;;;;;;;;;;;;;;;31.97;37.09;97364.12;1776278;78;20862;-85
2022/06/20 08:09:03;;;;;;;;;;;;;;;32.22;34.37;97363.50;1777491;79;21088;-85
2022/06/20 08:11:41;;;;;;;;;;;;;;;32.65;36.17;97355.38;1788814;78;20225;-88
2022/06/20 08:14:10;;;;;;;;;;;;;;;33.25;36.25;97351.48;1788993;77;20184;-88
2022/06/20 08:16:36;;;;;;;;;;;;;;;33.65;36.38;97346.86;1778045;77;20607;-88
2022/06/20 08:19:02;;;;;;;;;;;;;;;33.75;33.49;97344.94;1795636;77;20188;-88
2022/06/20 08:21:43;;;;;;;;;;;;;;;33.78;31.22;97330.80;1782787;77;20991;-87
2022/06/20 08:24:21;;;;;;;;;;;;;;;34.34;31.62;97327.94;1794491;77;20130;-89
2022/06/20 08:26:53;;;;;;;;;;;;;;;34.80;31.29;97318.52;1795323;77;20206;-88
2022/06/20 08:29:28;;;;;;;;;;;;;;;34.89;28.97;97313.76;1800449;77;20633;-89
2022/06/20 08:31:55;;;;;;;;;;;;;;;35.39;29.82;97303.44;1795830;77;20151;-89
2022/06/20 08:34:33;;;;;;;;;;;;;;;35.85;31.79;97303.58;1795698;76;20785;-89
2022/06/20 08:37:08;;;;;;;;;;;;;;;36.23;29.10;97295.36;1805785;77;20959;-89
2022/06/20 08:39:40;;;;;;;;;;;;;;;36.42;29.29;97288.52;1777812;79;20189;-89
2022/06/20 08:42:16;;;;;;;;;;;;;;;36.77;30.77;97288.19;1804216;78;20158;-88
2022/06/20 08:45:01;;;;;;;;;;;;;;;37.04;27.54;97278.27;1816298;77;20146;-89
2022/06/20 08:47:51;;;;;;;;;;;;;;;36.44;27.53;97273.31;1791427;78;22001;-89
2022/06/20 08:50:35;;;;;;;;;;;;;;;36.94;27.07;97271.09;1784060;79;21075;-88
2022/06/20 08:53:08;;;;;;;;;;;;;;;37.10;26.60;97260.84;1762307;77;20596;-90
2022/06/20 08:55:40;;;;;;;;;;;;;;;37.59;26.77;97249.03;1766796;78;20207;-88
2022/06/20 08:58:09;;;;;;;;;;;;;;;38.27;27.54;97243.60;1802091;78;20260;-90
2022/06/20 09:00:47;;;;;;;;;;;;;;;37.78;24.43;97240.66;1812820;78;21005;-89
2022/06/20 09:03:20;;;;;;;;;;;;;;;37.76;24.02;97231.82;1783419;79;20140;-89
2022/06/20 09:05:58;;;;;;;;;;;;;;;38.64;26.44;97231.34;1774223;79;20150;-88
2022/06/20 09:08:56;;;;;;;;;;;;;;;38.79;24.25;97226.47;1778680;78;20496;-88
2022/06/20 09:11:44;;;;;;;;;;;;;;;39.12;23.80;97237.61;1743438;79;20567;-89
2022/06/20 09:14:33;;;;;;;;;;;;;;;39.72;22.00;97231.96;1795102;77;21672;-89
2022/06/20 09:17:19;;;;;;;;;;;;;;;40.24;23.60;97229.94;1844632;76;20174;-88
2022/06/20 09:20:10;;;;;;;;;;;;;;;40.30;23.48;97226.53;1847437;76;20500;-86
2022/06/20 09:23:11;;;;;;;;;;;;;;;39.34;21.23;97220.19;1848990;76;20332;-86
2022/06/20 09:25:47;;;;;;;;;;;;;;;39.84;23.83;97211.65;1845754;76;20177;-87
2022/06/20 09:28:36;;;;;;;;;;;;;;;39.84;23.19;97215.90;1849573;76;21408;-86
2022/06/20 09:31:11;;;;;;;;;;;;;;;40.21;22.77;97198.31;1844402;75;20185;-86
2022/06/20 09:33:53;;;;;;;;;;;;;;;39.32;21.54;97193.64;1840349;75;20171;-86
2022/06/20 09:36:25;;;;;;;;;;;;;;;39.29;21.86;97176.97;1841770;76;20196;-86
2022/06/20 09:39:14;;;;;;;;;;;;;;;40.39;22.84;97177.35;1846919;76;20230;-86
2022/06/20 09:41:52;;;;;;;;;;;;;;;40.64;21.50;97171.56;1846253;76;22016;-86
2022/06/20 09:44:24;;;;;;;;;;;;;;;40.56;22.06;97177.69;1843900;76;20181;-87
2022/06/20 09:46:59;;;;;;;;;;;;;;;40.77;21.31;97174.14;1846650;76;20462;-87
2022/06/20 09:49:29;;;;;;;;;;;;;;;40.85;21.10;97174.44;1848666;76;20223;-87
2022/06/20 09:52:19;;;;;;;;;;;;;;;41.02;21.85;97157.56;1774895;79;20214;-87
2022/06/20 09:55:06;;;;;;;;;;;;;;;41.17;20.80;97150.31;1847434;75;21114;-86
2022/06/20 09:58:06;;;;;;;;;;;;;;;41.69;21.31;97145.97;1845508;76;20309;-87
2022/06/20 10:00:39;;;;;;;;;;;;;;;41.75;20.13;97140.99;1848518;76;20182;-86
2022/06/20 10:03:20;;;;;;;;;;;;;;;42.04;20.84;97140.56;1844820;76;20213;-86
2022/06/20 10:06:02;;;;;;;;;;;;;;;42.70;20.50;97127.77;1848530;75;20174;-86
2022/06/20 10:08:47;;;;;;;;;;;;;;;42.79;19.96;97118.97;1847635;76;21093;-86
2022/06/20 10:11:24;;;;;;;;;;;;;;;43.32;19.75;97114.23;1820204;76;20165;-87
2022/06/20 10:14:09;;;;;;;;;;;;;;;43.75;20.24;97112.45;1842646;75;20240;-86
2022/06/20 10:16:39;;;;;;;;;;;;;;;43.55;19.40;97112.13;1840681;77;20188;-86
2022/06/20 10:19:11;;;;;;;;;;;;;;;43.98;20.42;97107.41;1834734;75;20497;-87
2022/06/20 10:21:44;;;;;;;;;;;;;;;44.09;19.58;97106.56;1845247;76;22494;-87
2022/06/20 10:24:47;;;;;;;;;;;;;;;43.98;18.78;97110.27;1850612;77;20209;-86
2022/06/20 10:27:25;;;;;;;;;;;;;;;44.41;20.57;97111.95;1846765;76;20518;-87
2022/06/20 10:30:12;;;;;;;;;;;;;;;44.37;19.48;97106.42;1845705;76;20257;-86
2022/06/20 10:32:59;;;;;;;;;;;;;;;44.26;19.25;97115.81;1848487;75;20179;-87
2022/06/20 10:35:46;;;;;;;;;;;;;;;44.34;19.88;97116.03;1835510;75;21723;-88
2022/06/20 10:38:24;;;;;;;;;;;;;;;44.22;19.95;97111.72;1849205;75;20951;-88
2022/06/20 10:41:10;;;;;;;;;;;;;;;43.77;20.16;97118.42;1842016;77;20522;-89
2022/06/20 10:43:46;;;;;;;;;;;;;;;43.70;19.55;97123.22;1851750;75;20203;-89
2022/06/20 10:46:24;;;;;;;;;;;;;;;41.66;20.56;97124.91;1839688;75;20200;-87
2022/06/20 10:48:56;;;;;;;;;;;;;;;41.12;21.85;97125.63;1852297;75;21817;-88
2022/06/20 10:51:50;;;;;;;;;;;;;;;41.61;21.15;97129.26;1845769;75;20128;-88
2022/06/20 10:54:32;;;;;;;;;;;;;;;40.36;22.69;97137.22;1852523;76;20520;-89
2022/06/20 10:57:04;;;;;;;;;;;;;;;40.47;22.88;97145.22;1845429;76;20182;-89
2022/06/20 10:59:40;;;;;;;;;;;;;;;41.34;22.22;97156.91;1843434;75;20473;-89
2022/06/20 11:02:32;;;;;;;;;;;;;;;40.28;22.18;97159.58;1852133;77;21253;-88
2022/06/20 11:05:22;;;;;;;;;;;;;;;41.54;21.39;97149.67;1854362;75;20402;-88
2022/06/20 11:08:04;;;;;;;;;;;;;;;40.97;20.89;97150.57;1853618;76;20217;-89
2022/06/20 11:10:51;;;;;;;;;;;;;;;42.00;20.14;97147.80;1855748;77;20707;-88
2022/06/20 11:13:32;;;;;;;;;;;;;;;42.15;19.26;97151.24;1849840;77;20219;-88
2022/06/20 11:16:20;;;;;;;;;;;;;;;41.89;19.30;97152.81;1815252;77;21011;-88
2022/06/20 11:19:26;;;;;;;;;;;;;;;42.48;18.00;97145.61;1846241;76;20159;-88
2022/06/20 11:22:13;;;;;;;;;;;;;;;43.04;16.76;97145.65;1852405;76;20494;-88
2022/06/20 11:24:57;;;;;;;;;;;;;;;42.81;16.24;97142.00;1849089;76;20177;-87
2022/06/20 11:27:47;;;;;;;;;;;;;;;43.75;16.45;97140.97;1850856;76;20222;-87
2022/06/20 11:30:18;;;;;;;;;;;;;;;44.94;16.62;97136.88;1847705;75;21914;-87
2022/06/20 11:33:21;;;;;;;;;;;;;;;45.11;16.23;97130.23;1856073;76;20965;-89
2022/06/20 11:35:56;;;;;;;;;;;;;;;43.98;15.91;97138.02;1845419;76;20210;-88
2022/06/20 11:38:26;;;;;;;;;;;;;;;44.11;16.51;97140.42;1842381;75;20539;-89
2022/06/20 11:41:07;;;;;;;;;;;;;;;45.43;15.50;97134.73;1851985;76;20132;-89
2022/06/20 11:44:06;;;;;;;;;;;;;;;44.78;16.39;97132.72;1847650;75;21141;-87
2022/06/20 11:46:34;;;;;;;;;;;;;;;45.34;16.78;97133.01;1844099;76;20192;-87
2022/06/20 11:49:25;;;;;;;;;;;;;;;44.69;17.75;97139.53;1853304;76;20139;-86
2022/06/20 11:52:12;;;;;;;;;;;;;;;43.23;18.65;97134.47;1846972;75;20701;-87
2022/06/20 11:54:50;;;;;;;;;;;;;;;42.64;18.98;97124.80;1849736;76;20186;-87
2022/06/20 11:57:40;;;;;;;;;;;;;;;43.51;19.15;97123.04;1849677;76;21241;-87
2022/06/20 12:00:12;;;;;;;;;;;;;;;44.64;18.90;97125.44;1848580;76;20565;-87
2022/06/20 12:02:48;;;;;;;;;;;;;;;45.35;18.10;97142.36;1854299;76;20199;-88
2022/06/20 12:05:52;;;;;;;;;;;;;;;45.20;17.91;97147.80;1847618;76;20200;-89
2022/06/20 12:08:50;;;;;;;;;;;;;;;44.78;18.77;97147.77;1848140;75;20193;-88
2022/06/20 12:11:19;;;;;;;;;;;;;;;42.18;20.76;97158.09;1848902;75;21936;-89
2022/06/20 12:14:13;;;;;;;;;;;;;;;41.79;21.12;97152.27;1837862;75;20178;-88
2022/06/20 12:16:43;;;;;;;;;;;;;;;41.59;21.00;97159.49;1850869;75;20195;-87
2022/06/20 12:25:39;;;;;;;;;;;;;;;38.98;21.25;97216.38;1845954;76;21120;-86
2022/06/20 12:28:18;;;;;;;;;;;;;;;37.47;26.20;97235.30;1853672;75;20175;-86
2022/06/20 12:30:45;;;;;;;;;;;;;;;35.27;30.21;97255.00;1851972;76;20245;-86
2022/06/20 12:33:11;;;;;;;;;;;;;;;33.53;32.46;97279.64;1812287;76;20245;-86
2022/06/20 12:35:43;;;;;;;;;;;;;;;32.74;32.65;97284.01;1851357;76;20186;-87
2022/06/20 12:38:21;;;;;;;;;;;;;;;31.69;33.12;97325.55;1846201;75;21111;-88
2022/06/20 12:40:54;;;;;;;;;;;;;;;30.83;34.42;97356.00;1836523;76;20431;-88
2022/06/20 12:43:26;;;;;;;;;;;;;;;30.20;35.18;97348.37;1850422;76;20210;-87
2022/06/20 12:46:05;;;;;;;;;;;;;;;29.66;35.38;97344.25;1809745;77;20733;-87
2022/06/20 12:48:43;;;;;;;;;;;;;;;29.34;36.28;97345.30;1846264;76;20490;-87
2022/06/20 12:51:21;;;;;;;;;;;;;;;30.44;34.18;97353.94;1844435;75;20951;-87
2022/06/20 12:54:00;;;;;;;;;;;;;;;31.39;32.93;97351.86;1844593;76;20159;-87
2022/06/20 12:56:32;;;;;;;;;;;;;;;30.73;32.95;97351.41;1846589;76;20745;-88
2022/06/20 12:59:35;;;;;;;;;;;;;;;31.09;32.81;97347.27;1849676;76;20143;-88
2022/06/20 13:02:35;;;;;;;;;;;;;;;31.09;32.43;97336.87;1845695;76;20174;-88
2022/06/20 13:05:20;;;;;;;;;;;;;;;30.85;32.21;97356.34;1848579;76;21846;-88
2022/06/20 13:08:07;;;;;;;;;;;;;;;30.66;32.62;97355.13;1845449;76;21267;-88
2022/06/20 13:11:02;;;;;;;;;;;;;;;30.67;32.28;97355.91;1844620;75;20149;-88
2022/06/20 13:13:43;;;;;;;;;;;;;;;30.37;32.62;97358.27;1838848;75;20128;-87
2022/06/20 13:16:30;;;;;;;;;;;;;;;30.06;33.31;97361.93;1839170;76;21217;-87
2022/06/20 13:19:14;;;;;;;;;;;;;;;29.39;34.88;97358.16;1842380;75;21124;-87
2022/06/20 13:21:48;;;;;;;;;;;;;;;28.77;36.51;97352.36;1843739;76;20298;-87
2022/06/20 13:24:40;;;;;;;;;;;;;;;28.93;36.57;97353.20;1817370;76;20231;-87
2022/06/20 13:27:13;;;;;;;;;;;;;;;28.93;37.10;97361.56;1838438;76;20885;-87
2022/06/20 13:30:04;;;;;;;;;;;;;;;28.86;37.95;97354.03;1837861;76;20147;-85
2022/06/20 13:32:33;;;;;;;;;;;;;;;28.81;37.20;97354.52;1841231;76;21702;-87
2022/06/20 13:35:05;;;;;;;;;;;;;;;28.68;38.30;97359.64;1838124;76;20192;-87
2022/06/20 13:37:56;;;;;;;;;;;;;;;28.49;39.16;97350.69;1835974;75;20364;-87
2022/06/20 13:40:52;;;;;;;;;;;;;;;28.57;38.23;97358.37;1837970;75;20620;-87
2022/06/20 13:43:24;;;;;;;;;;;;;;;28.57;39.54;97363.94;1840854;76;20170;-87
2022/06/20 13:46:14;;;;;;;;;;;;;;;28.70;38.00;97380.91;1856840;76;21036;-86
2022/06/20 13:48:44;;;;;;;;;;;;;;;28.64;39.86;97384.77;1819096;77;20231;-87
2022/06/20 13:51:12;;;;;;;;;;;;;;;28.46;38.96;97370.20;1841957;76;20550;-87
2022/06/20 13:53:45;;;;;;;;;;;;;;;28.08;41.35;97366.76;1839294;75;20296;-87
2022/06/20 13:56:29;;;;;;;;;;;;;;;27.84;40.56;97373.31;1847720;76;20177;-86
2022/06/20 13:59:17;;;;;;;;;;;;;;;27.64;40.58;97380.59;1844677;76;21884;-86